sensor_id;sensor_type;location;lat;lon;timestamp;P1;durP1;ratioP1;P2;durP2;ratioP2
10565;SDS011;5331;48.148;16.326;2023-02-28T00:01:04;10.53;;;7.60;;
10565;SDS011;5331;48.148;16.326;2023-02-28T00:03:31;10.33;;;7.47;;
10565;SDS011;5331;48.148;16.326;2023-02-28T00:06:00;10.47;;;7.57;;
10565;SDS011;5331;48.148;16.326;2023-02-28T00:08:28;10.30;;;7.40;;
10565;SDS011;5331;48.148;16.326;2023-02-28T00:10:55;11.50;;;8.50;;
10565;SDS011;5331;48.148;16.326;2023-02-28T00:13:22;12.60;;;8.13;;
10565;SDS011;5331;48.148;16.326;2023-02-28T00:15:58;10.93;;;8.20;;
10565;SDS011;5331;48.148;16.326;2023-02-28T00:18:25;10.47;;;7.37;;
10565;SDS011;5331;48.148;16.326;2023-02-28T00:23:25;12.00;;;8.43;;
10565;SDS011;5331;48.148;16.326;2023-02-28T00:25:53;12.23;;;7.53;;
10565;SDS011;5331;48.148;16.326;2023-02-28T00:28:20;10.90;;;8.03;;
10565;SDS011;5331;48.148;16.326;2023-02-28T00:30:48;9.50;;;7.23;;
10565;SDS011;5331;48.148;16.326;2023-02-28T00:33:15;11.63;;;8.10;;
10565;SDS011;5331;48.148;16.326;2023-02-28T00:35:42;11.87;;;8.23;;
10565;SDS011;5331;48.148;16.326;2023-02-28T00:38:11;11.27;;;8.40;;
10565;SDS011;5331;48.148;16.326;2023-02-28T00:40:38;10.33;;;8.30;;
10565;SDS011;5331;48.148;16.326;2023-02-28T00:43:06;13.83;;;8.87;;
10565;SDS011;5331;48.148;16.326;2023-02-28T00:45:33;11.80;;;8.93;;
10565;SDS011;5331;48.148;16.326;2023-02-28T00:48:00;11.13;;;8.73;;
10565;SDS011;5331;48.148;16.326;2023-02-28T00:50:27;10.90;;;8.90;;
10565;SDS011;5331;48.148;16.326;2023-02-28T00:52:54;11.93;;;8.23;;
10565;SDS011;5331;48.148;16.326;2023-02-28T00:55:21;11.33;;;8.70;;
10565;SDS011;5331;48.148;16.326;2023-02-28T00:57:47;11.03;;;8.27;;
10565;SDS011;5331;48.148;16.326;2023-02-28T01:00:16;11.73;;;8.73;;
10565;SDS011;5331;48.148;16.326;2023-02-28T01:02:43;11.60;;;8.50;;
10565;SDS011;5331;48.148;16.326;2023-02-28T01:05:10;12.73;;;8.67;;
10565;SDS011;5331;48.148;16.326;2023-02-28T01:07:37;11.13;;;7.93;;
10565;SDS011;5331;48.148;16.326;2023-02-28T01:10:04;14.37;;;9.40;;
10565;SDS011;5331;48.148;16.326;2023-02-28T01:12:32;11.20;;;8.03;;
10565;SDS011;5331;48.148;16.326;2023-02-28T01:14:59;13.17;;;8.83;;
10565;SDS011;5331;48.148;16.326;2023-02-28T01:17:27;11.50;;;8.47;;
10565;SDS011;5331;48.148;16.326;2023-02-28T01:19:54;14.17;;;8.50;;
10565;SDS011;5331;48.148;16.326;2023-02-28T01:22:21;13.00;;;9.33;;
10565;SDS011;5331;48.148;16.326;2023-02-28T01:24:48;12.60;;;8.97;;
10565;SDS011;5331;48.148;16.326;2023-02-28T01:27:15;12.63;;;8.97;;
10565;SDS011;5331;48.148;16.326;2023-02-28T01:29:42;12.57;;;9.03;;
10565;SDS011;5331;48.148;16.326;2023-02-28T01:32:09;13.13;;;8.70;;
10565;SDS011;5331;48.148;16.326;2023-02-28T01:34:37;11.27;;;8.70;;
10565;SDS011;5331;48.148;16.326;2023-02-28T01:37:04;11.63;;;8.77;;
10565;SDS011;5331;48.148;16.326;2023-02-28T01:39:31;12.17;;;8.73;;
10565;SDS011;5331;48.148;16.326;2023-02-28T01:41:58;13.30;;;9.17;;
10565;SDS011;5331;48.148;16.326;2023-02-28T01:47:43;10.70;;;8.40;;
10565;SDS011;5331;48.148;16.326;2023-02-28T01:50:13;12.80;;;8.73;;
10565;SDS011;5331;48.148;16.326;2023-02-28T01:52:44;10.43;;;7.70;;
10565;SDS011;5331;48.148;16.326;2023-02-28T01:55:13;12.73;;;8.37;;
10565;SDS011;5331;48.148;16.326;2023-02-28T01:57:43;9.13;;;7.77;;
10565;SDS011;5331;48.148;16.326;2023-02-28T02:00:15;11.47;;;8.27;;
10565;SDS011;5331;48.148;16.326;2023-02-28T02:02:44;11.30;;;8.27;;
10565;SDS011;5331;48.148;16.326;2023-02-28T02:05:16;11.73;;;7.93;;
10565;SDS011;5331;48.148;16.326;2023-02-28T02:07:46;9.70;;;7.90;;
10565;SDS011;5331;48.148;16.326;2023-02-28T02:10:17;10.23;;;8.17;;
10565;SDS011;5331;48.148;16.326;2023-02-28T02:15:40;11.10;;;8.17;;
10565;SDS011;5331;48.148;16.326;2023-02-28T02:18:13;10.73;;;8.30;;
10565;SDS011;5331;48.148;16.326;2023-02-28T02:21:11;11.17;;;7.87;;
10565;SDS011;5331;48.148;16.326;2023-02-28T02:27:33;12.80;;;8.77;;
10565;SDS011;5331;48.148;16.326;2023-02-28T02:30:29;12.47;;;8.40;;
10565;SDS011;5331;48.148;16.326;2023-02-28T02:33:17;12.60;;;8.47;;
10565;SDS011;5331;48.148;16.326;2023-02-28T02:35:57;10.23;;;7.63;;
10565;SDS011;5331;48.148;16.326;2023-02-28T02:38:31;10.07;;;7.93;;
10565;SDS011;5331;48.148;16.326;2023-02-28T02:41:03;12.00;;;8.57;;
10565;SDS011;5331;48.148;16.326;2023-02-28T02:43:37;10.87;;;7.97;;
10565;SDS011;5331;48.148;16.326;2023-02-28T02:46:12;10.67;;;8.07;;
10565;SDS011;5331;48.148;16.326;2023-02-28T02:48:43;11.33;;;7.63;;
10565;SDS011;5331;48.148;16.326;2023-02-28T02:51:14;8.60;;;6.70;;
10565;SDS011;5331;48.148;16.326;2023-02-28T02:53:45;10.77;;;7.80;;
10565;SDS011;5331;48.148;16.326;2023-02-28T02:56:15;11.13;;;8.37;;
10565;SDS011;5331;48.148;16.326;2023-02-28T02:58:44;11.50;;;8.50;;
10565;SDS011;5331;48.148;16.326;2023-02-28T03:01:14;10.87;;;7.87;;
10565;SDS011;5331;48.148;16.326;2023-02-28T03:03:52;10.97;;;8.47;;
10565;SDS011;5331;48.148;16.326;2023-02-28T03:06:22;12.87;;;8.17;;
10565;SDS011;5331;48.148;16.326;2023-02-28T03:08:49;10.80;;;8.27;;
10565;SDS011;5331;48.148;16.326;2023-02-28T03:11:16;10.87;;;8.03;;
10565;SDS011;5331;48.148;16.326;2023-02-28T03:13:51;11.30;;;8.33;;
10565;SDS011;5331;48.148;16.326;2023-02-28T03:16:35;11.10;;;7.50;;
10565;SDS011;5331;48.148;16.326;2023-02-28T03:19:24;10.17;;;7.97;;
10565;SDS011;5331;48.148;16.326;2023-02-28T03:22:12;10.97;;;8.17;;
10565;SDS011;5331;48.148;16.326;2023-02-28T03:24:49;10.90;;;8.73;;
10565;SDS011;5331;48.148;16.326;2023-02-28T03:27:22;12.63;;;9.10;;
10565;SDS011;5331;48.148;16.326;2023-02-28T03:29:54;11.60;;;8.37;;
10565;SDS011;5331;48.148;16.326;2023-02-28T03:32:27;12.83;;;9.40;;
10565;SDS011;5331;48.148;16.326;2023-02-28T03:35:01;21.57;;;16.47;;
10565;SDS011;5331;48.148;16.326;2023-02-28T03:37:34;19.43;;;14.80;;
10565;SDS011;5331;48.148;16.326;2023-02-28T03:40:04;16.53;;;13.93;;
10565;SDS011;5331;48.148;16.326;2023-02-28T03:42:37;18.10;;;13.97;;
10565;SDS011;5331;48.148;16.326;2023-02-28T03:45:09;14.77;;;13.13;;
10565;SDS011;5331;48.148;16.326;2023-02-28T03:47:40;14.73;;;11.10;;
10565;SDS011;5331;48.148;16.326;2023-02-28T03:50:13;14.87;;;10.43;;
10565;SDS011;5331;48.148;16.326;2023-02-28T03:52:45;12.70;;;9.63;;
10565;SDS011;5331;48.148;16.326;2023-02-28T03:55:16;11.63;;;9.47;;
10565;SDS011;5331;48.148;16.326;2023-02-28T03:57:47;12.07;;;9.10;;
10565;SDS011;5331;48.148;16.326;2023-02-28T04:00:25;11.87;;;8.97;;
10565;SDS011;5331;48.148;16.326;2023-02-28T04:02:54;12.57;;;8.73;;
10565;SDS011;5331;48.148;16.326;2023-02-28T04:05:21;13.63;;;9.27;;
10565;SDS011;5331;48.148;16.326;2023-02-28T04:07:50;11.40;;;9.13;;
10565;SDS011;5331;48.148;16.326;2023-02-28T04:10:18;12.63;;;8.77;;
10565;SDS011;5331;48.148;16.326;2023-02-28T04:12:45;12.13;;;9.43;;
10565;SDS011;5331;48.148;16.326;2023-02-28T04:15:12;11.53;;;8.97;;
10565;SDS011;5331;48.148;16.326;2023-02-28T04:17:38;11.80;;;8.90;;
10565;SDS011;5331;48.148;16.326;2023-02-28T04:20:06;12.37;;;9.07;;
10565;SDS011;5331;48.148;16.326;2023-02-28T04:22:35;11.33;;;8.70;;
10565;SDS011;5331;48.148;16.326;2023-02-28T04:25:04;12.77;;;9.43;;
10565;SDS011;5331;48.148;16.326;2023-02-28T04:27:32;12.87;;;9.53;;
10565;SDS011;5331;48.148;16.326;2023-02-28T04:30:00;13.17;;;9.27;;
10565;SDS011;5331;48.148;16.326;2023-02-28T04:32:26;13.43;;;9.83;;
10565;SDS011;5331;48.148;16.326;2023-02-28T04:34:53;13.97;;;10.10;;
10565;SDS011;5331;48.148;16.326;2023-02-28T04:37:20;13.83;;;10.17;;
10565;SDS011;5331;48.148;16.326;2023-02-28T04:39:52;13.20;;;9.97;;
10565;SDS011;5331;48.148;16.326;2023-02-28T04:42:21;13.87;;;9.60;;
10565;SDS011;5331;48.148;16.326;2023-02-28T04:44:49;13.67;;;9.67;;
10565;SDS011;5331;48.148;16.326;2023-02-28T04:47:16;12.57;;;9.93;;
10565;SDS011;5331;48.148;16.326;2023-02-28T04:49:43;13.70;;;9.83;;
10565;SDS011;5331;48.148;16.326;2023-02-28T04:52:09;14.20;;;9.70;;
10565;SDS011;5331;48.148;16.326;2023-02-28T04:54:38;16.47;;;10.43;;
10565;SDS011;5331;48.148;16.326;2023-02-28T04:57:05;13.27;;;10.63;;
10565;SDS011;5331;48.148;16.326;2023-02-28T04:59:33;13.77;;;10.83;;
10565;SDS011;5331;48.148;16.326;2023-02-28T05:02:00;15.73;;;10.63;;
10565;SDS011;5331;48.148;16.326;2023-02-28T05:04:31;12.77;;;9.37;;
10565;SDS011;5331;48.148;16.326;2023-02-28T05:06:59;13.37;;;9.83;;
10565;SDS011;5331;48.148;16.326;2023-02-28T05:09:26;12.03;;;8.97;;
10565;SDS011;5331;48.148;16.326;2023-02-28T05:11:53;13.00;;;9.70;;
10565;SDS011;5331;48.148;16.326;2023-02-28T05:14:20;13.87;;;10.23;;
10565;SDS011;5331;48.148;16.326;2023-02-28T05:16:48;13.97;;;10.37;;
10565;SDS011;5331;48.148;16.326;2023-02-28T05:19:15;14.00;;;10.30;;
10565;SDS011;5331;48.148;16.326;2023-02-28T05:21:48;14.43;;;10.13;;
10565;SDS011;5331;48.148;16.326;2023-02-28T05:24:16;14.47;;;10.57;;
10565;SDS011;5331;48.148;16.326;2023-02-28T05:26:47;15.30;;;10.30;;
10565;SDS011;5331;48.148;16.326;2023-02-28T05:29:16;15.57;;;10.20;;
10565;SDS011;5331;48.148;16.326;2023-02-28T05:31:43;16.13;;;10.40;;
10565;SDS011;5331;48.148;16.326;2023-02-28T05:34:11;17.43;;;11.47;;
10565;SDS011;5331;48.148;16.326;2023-02-28T05:36:40;17.27;;;11.33;;
10565;SDS011;5331;48.148;16.326;2023-02-28T05:39:07;16.57;;;11.13;;
10565;SDS011;5331;48.148;16.326;2023-02-28T05:41:38;17.43;;;12.17;;
10565;SDS011;5331;48.148;16.326;2023-02-28T05:44:06;17.80;;;11.20;;
10565;SDS011;5331;48.148;16.326;2023-02-28T05:46:33;21.23;;;12.87;;
10565;SDS011;5331;48.148;16.326;2023-02-28T05:49:00;18.90;;;11.93;;
10565;SDS011;5331;48.148;16.326;2023-02-28T05:51:28;20.73;;;12.10;;
10565;SDS011;5331;48.148;16.326;2023-02-28T05:53:58;17.83;;;12.00;;
10565;SDS011;5331;48.148;16.326;2023-02-28T05:56:26;18.63;;;12.23;;
10565;SDS011;5331;48.148;16.326;2023-02-28T05:58:53;17.20;;;11.80;;
10565;SDS011;5331;48.148;16.326;2023-02-28T06:01:21;17.80;;;11.43;;
10565;SDS011;5331;48.148;16.326;2023-02-28T06:03:50;18.37;;;11.07;;
10565;SDS011;5331;48.148;16.326;2023-02-28T06:06:17;14.17;;;10.73;;
10565;SDS011;5331;48.148;16.326;2023-02-28T06:08:46;15.40;;;11.47;;
10565;SDS011;5331;48.148;16.326;2023-02-28T06:11:13;14.73;;;10.43;;
10565;SDS011;5331;48.148;16.326;2023-02-28T06:13:40;16.67;;;11.20;;
10565;SDS011;5331;48.148;16.326;2023-02-28T06:16:08;15.70;;;10.90;;
10565;SDS011;5331;48.148;16.326;2023-02-28T06:18:36;16.53;;;11.37;;
10565;SDS011;5331;48.148;16.326;2023-02-28T06:21:03;16.30;;;11.17;;
10565;SDS011;5331;48.148;16.326;2023-02-28T06:23:30;18.07;;;11.23;;
10565;SDS011;5331;48.148;16.326;2023-02-28T06:25:59;16.13;;;11.47;;
10565;SDS011;5331;48.148;16.326;2023-02-28T06:28:26;16.67;;;10.90;;
10565;SDS011;5331;48.148;16.326;2023-02-28T06:30:53;13.77;;;10.00;;
10565;SDS011;5331;48.148;16.326;2023-02-28T06:33:20;16.70;;;12.03;;
10565;SDS011;5331;48.148;16.326;2023-02-28T06:35:47;15.67;;;12.07;;
10565;SDS011;5331;48.148;16.326;2023-02-28T06:38:16;14.90;;;11.23;;
10565;SDS011;5331;48.148;16.326;2023-02-28T06:40:43;17.07;;;11.53;;
10565;SDS011;5331;48.148;16.326;2023-02-28T06:43:11;14.80;;;11.80;;
10565;SDS011;5331;48.148;16.326;2023-02-28T06:45:41;21.03;;;14.90;;
10565;SDS011;5331;48.148;16.326;2023-02-28T06:48:08;16.60;;;12.23;;
10565;SDS011;5331;48.148;16.326;2023-02-28T06:50:36;19.33;;;12.97;;
10565;SDS011;5331;48.148;16.326;2023-02-28T06:53:03;23.37;;;14.80;;
10565;SDS011;5331;48.148;16.326;2023-02-28T06:55:30;19.33;;;13.73;;
10565;SDS011;5331;48.148;16.326;2023-02-28T06:57:57;19.10;;;13.20;;
10565;SDS011;5331;48.148;16.326;2023-02-28T07:00:25;16.93;;;13.17;;
10565;SDS011;5331;48.148;16.326;2023-02-28T07:02:52;19.07;;;14.23;;
10565;SDS011;5331;48.148;16.326;2023-02-28T07:05:20;16.87;;;12.57;;
10565;SDS011;5331;48.148;16.326;2023-02-28T07:07:47;19.23;;;13.67;;
10565;SDS011;5331;48.148;16.326;2023-02-28T07:10:14;19.17;;;14.10;;
10565;SDS011;5331;48.148;16.326;2023-02-28T07:12:42;20.90;;;14.30;;
10565;SDS011;5331;48.148;16.326;2023-02-28T07:15:09;23.30;;;14.30;;
10565;SDS011;5331;48.148;16.326;2023-02-28T07:17:38;20.33;;;14.53;;
10565;SDS011;5331;48.148;16.326;2023-02-28T07:20:05;19.60;;;13.93;;
10565;SDS011;5331;48.148;16.326;2023-02-28T07:22:33;20.13;;;14.40;;
10565;SDS011;5331;48.148;16.326;2023-02-28T07:25:00;19.17;;;14.20;;
10565;SDS011;5331;48.148;16.326;2023-02-28T07:27:27;18.40;;;13.63;;
10565;SDS011;5331;48.148;16.326;2023-02-28T07:29:54;21.47;;;13.93;;
10565;SDS011;5331;48.148;16.326;2023-02-28T07:32:21;17.73;;;13.73;;
10565;SDS011;5331;48.148;16.326;2023-02-28T07:34:49;20.07;;;14.27;;
10565;SDS011;5331;48.148;16.326;2023-02-28T07:37:16;19.57;;;13.90;;
10565;SDS011;5331;48.148;16.326;2023-02-28T07:39:43;17.63;;;13.30;;
10565;SDS011;5331;48.148;16.326;2023-02-28T07:42:10;17.87;;;13.53;;
10565;SDS011;5331;48.148;16.326;2023-02-28T07:44:37;21.20;;;14.87;;
10565;SDS011;5331;48.148;16.326;2023-02-28T07:47:06;24.77;;;15.00;;
10565;SDS011;5331;48.148;16.326;2023-02-28T07:49:34;23.80;;;14.90;;
10565;SDS011;5331;48.148;16.326;2023-02-28T07:52:02;19.47;;;13.60;;
10565;SDS011;5331;48.148;16.326;2023-02-28T07:54:29;18.37;;;13.03;;
10565;SDS011;5331;48.148;16.326;2023-02-28T07:56:56;21.17;;;14.10;;
10565;SDS011;5331;48.148;16.326;2023-02-28T07:59:23;20.87;;;14.13;;
10565;SDS011;5331;48.148;16.326;2023-02-28T08:01:51;20.43;;;13.63;;
10565;SDS011;5331;48.148;16.326;2023-02-28T08:04:18;17.50;;;13.33;;
10565;SDS011;5331;48.148;16.326;2023-02-28T08:06:45;20.93;;;13.87;;
10565;SDS011;5331;48.148;16.326;2023-02-28T08:09:14;17.20;;;13.37;;
10565;SDS011;5331;48.148;16.326;2023-02-28T08:11:40;19.20;;;13.80;;
10565;SDS011;5331;48.148;16.326;2023-02-28T08:14:07;15.47;;;12.50;;
10565;SDS011;5331;48.148;16.326;2023-02-28T08:16:34;19.67;;;12.97;;
10565;SDS011;5331;48.148;16.326;2023-02-28T08:19:02;17.57;;;13.53;;
10565;SDS011;5331;48.148;16.326;2023-02-28T08:21:29;17.83;;;12.37;;
10565;SDS011;5331;48.148;16.326;2023-02-28T08:23:56;18.93;;;12.90;;
10565;SDS011;5331;48.148;16.326;2023-02-28T08:26:24;18.57;;;12.73;;
10565;SDS011;5331;48.148;16.326;2023-02-28T08:28:51;19.07;;;12.83;;
10565;SDS011;5331;48.148;16.326;2023-02-28T08:31:18;17.20;;;13.13;;
10565;SDS011;5331;48.148;16.326;2023-02-28T08:33:45;16.80;;;12.43;;
10565;SDS011;5331;48.148;16.326;2023-02-28T08:36:13;18.27;;;12.47;;
10565;SDS011;5331;48.148;16.326;2023-02-28T08:38:41;15.23;;;12.00;;
10565;SDS011;5331;48.148;16.326;2023-02-28T08:41:09;16.07;;;11.70;;
10565;SDS011;5331;48.148;16.326;2023-02-28T08:43:39;18.87;;;12.53;;
10565;SDS011;5331;48.148;16.326;2023-02-28T08:46:07;17.23;;;11.87;;
10565;SDS011;5331;48.148;16.326;2023-02-28T08:48:34;16.07;;;11.07;;
10565;SDS011;5331;48.148;16.326;2023-02-28T08:51:04;16.83;;;10.73;;
10565;SDS011;5331;48.148;16.326;2023-02-28T08:53:34;13.83;;;10.90;;
10565;SDS011;5331;48.148;16.326;2023-02-28T08:56:02;14.77;;;11.20;;
10565;SDS011;5331;48.148;16.326;2023-02-28T08:58:31;15.40;;;10.87;;
10565;SDS011;5331;48.148;16.326;2023-02-28T09:01:00;16.60;;;11.83;;
10565;SDS011;5331;48.148;16.326;2023-02-28T09:03:34;15.57;;;11.13;;
10565;SDS011;5331;48.148;16.326;2023-02-28T09:06:01;14.03;;;10.60;;
10565;SDS011;5331;48.148;16.326;2023-02-28T09:08:30;14.97;;;10.60;;
10565;SDS011;5331;48.148;16.326;2023-02-28T09:10:57;14.67;;;10.20;;
10565;SDS011;5331;48.148;16.326;2023-02-28T09:13:24;15.33;;;10.53;;
10565;SDS011;5331;48.148;16.326;2023-02-28T09:15:51;14.13;;;10.10;;
10565;SDS011;5331;48.148;16.326;2023-02-28T09:18:20;15.57;;;10.93;;
10565;SDS011;5331;48.148;16.326;2023-02-28T09:20:47;15.73;;;11.23;;
10565;SDS011;5331;48.148;16.326;2023-02-28T09:23:15;19.73;;;11.60;;
10565;SDS011;5331;48.148;16.326;2023-02-28T09:25:46;15.37;;;11.03;;
10565;SDS011;5331;48.148;16.326;2023-02-28T09:28:13;14.43;;;10.73;;
10565;SDS011;5331;48.148;16.326;2023-02-28T09:30:41;16.30;;;11.70;;
10565;SDS011;5331;48.148;16.326;2023-02-28T09:33:10;17.80;;;10.80;;
10565;SDS011;5331;48.148;16.326;2023-02-28T09:35:38;13.97;;;10.67;;
10565;SDS011;5331;48.148;16.326;2023-02-28T09:38:05;17.43;;;11.07;;
10565;SDS011;5331;48.148;16.326;2023-02-28T09:40:34;16.90;;;10.90;;
10565;SDS011;5331;48.148;16.326;2023-02-28T09:43:03;15.30;;;10.93;;
10565;SDS011;5331;48.148;16.326;2023-02-28T09:45:31;17.40;;;11.60;;
10565;SDS011;5331;48.148;16.326;2023-02-28T09:48:01;15.17;;;11.33;;
10565;SDS011;5331;48.148;16.326;2023-02-28T09:50:33;16.37;;;11.67;;
10565;SDS011;5331;48.148;16.326;2023-02-28T09:53:06;17.20;;;11.10;;
10565;SDS011;5331;48.148;16.326;2023-02-28T09:55:42;15.80;;;11.37;;
10565;SDS011;5331;48.148;16.326;2023-02-28T09:58:14;14.00;;;11.00;;
10565;SDS011;5331;48.148;16.326;2023-02-28T10:00:45;16.67;;;11.00;;
10565;SDS011;5331;48.148;16.326;2023-02-28T10:03:24;15.83;;;11.13;;
10565;SDS011;5331;48.148;16.326;2023-02-28T10:05:56;16.17;;;11.53;;
10565;SDS011;5331;48.148;16.326;2023-02-28T10:08:33;14.97;;;10.77;;
10565;SDS011;5331;48.148;16.326;2023-02-28T10:11:06;16.83;;;11.37;;
10565;SDS011;5331;48.148;16.326;2023-02-28T10:13:36;15.30;;;11.20;;
10565;SDS011;5331;48.148;16.326;2023-02-28T10:16:10;15.27;;;10.83;;
10565;SDS011;5331;48.148;16.326;2023-02-28T10:18:41;17.00;;;11.13;;
10565;SDS011;5331;48.148;16.326;2023-02-28T10:21:17;16.83;;;10.93;;
10565;SDS011;5331;48.148;16.326;2023-02-28T10:23:50;15.17;;;11.27;;
10565;SDS011;5331;48.148;16.326;2023-02-28T10:26:29;16.73;;;11.00;;
10565;SDS011;5331;48.148;16.326;2023-02-28T10:28:58;14.30;;;10.47;;
10565;SDS011;5331;48.148;16.326;2023-02-28T10:31:25;18.10;;;12.50;;
10565;SDS011;5331;48.148;16.326;2023-02-28T10:33:52;16.30;;;10.90;;
10565;SDS011;5331;48.148;16.326;2023-02-28T10:36:20;15.87;;;10.90;;
10565;SDS011;5331;48.148;16.326;2023-02-28T10:38:48;15.70;;;11.03;;
10565;SDS011;5331;48.148;16.326;2023-02-28T10:41:26;16.83;;;11.30;;
10565;SDS011;5331;48.148;16.326;2023-02-28T10:44:11;17.00;;;11.00;;
10565;SDS011;5331;48.148;16.326;2023-02-28T10:46:41;15.20;;;10.77;;
10565;SDS011;5331;48.148;16.326;2023-02-28T10:49:13;12.93;;;10.10;;
10565;SDS011;5331;48.148;16.326;2023-02-28T10:51:43;14.57;;;10.33;;
10565;SDS011;5331;48.148;16.326;2023-02-28T10:54:18;15.00;;;10.93;;
10565;SDS011;5331;48.148;16.326;2023-02-28T10:57:06;13.30;;;10.37;;
10565;SDS011;5331;48.148;16.326;2023-02-28T10:59:42;15.57;;;10.17;;
10565;SDS011;5331;48.148;16.326;2023-02-28T11:04:56;14.97;;;10.27;;
10565;SDS011;5331;48.148;16.326;2023-02-28T11:07:25;14.27;;;10.20;;
10565;SDS011;5331;48.148;16.326;2023-02-28T11:09:53;13.13;;;9.50;;
10565;SDS011;5331;48.148;16.326;2023-02-28T11:12:23;14.37;;;9.57;;
10565;SDS011;5331;48.148;16.326;2023-02-28T11:14:54;14.20;;;9.80;;
10565;SDS011;5331;48.148;16.326;2023-02-28T11:17:23;13.63;;;10.07;;
10565;SDS011;5331;48.148;16.326;2023-02-28T11:19:52;14.77;;;9.80;;
10565;SDS011;5331;48.148;16.326;2023-02-28T11:22:21;13.67;;;9.60;;
10565;SDS011;5331;48.148;16.326;2023-02-28T11:24:54;12.90;;;10.20;;
10565;SDS011;5331;48.148;16.326;2023-02-28T11:27:45;13.53;;;10.60;;
10565;SDS011;5331;48.148;16.326;2023-02-28T11:30:29;14.33;;;10.07;;
10565;SDS011;5331;48.148;16.326;2023-02-28T11:33:00;15.50;;;9.93;;
10565;SDS011;5331;48.148;16.326;2023-02-28T11:35:42;14.60;;;10.30;;
10565;SDS011;5331;48.148;16.326;2023-02-28T11:38:09;14.17;;;10.80;;
10565;SDS011;5331;48.148;16.326;2023-02-28T11:40:42;13.80;;;10.00;;
10565;SDS011;5331;48.148;16.326;2023-02-28T11:43:20;16.60;;;11.03;;
10565;SDS011;5331;48.148;16.326;2023-02-28T11:46:00;13.93;;;10.67;;
10565;SDS011;5331;48.148;16.326;2023-02-28T11:48:36;16.40;;;10.87;;
10565;SDS011;5331;48.148;16.326;2023-02-28T11:51:17;14.77;;;10.63;;
10565;SDS011;5331;48.148;16.326;2023-02-28T11:56:54;15.00;;;10.67;;
10565;SDS011;5331;48.148;16.326;2023-02-28T11:59:45;17.30;;;9.90;;
10565;SDS011;5331;48.148;16.326;2023-02-28T12:02:23;13.90;;;10.53;;
10565;SDS011;5331;48.148;16.326;2023-02-28T12:07:47;13.67;;;9.80;;
10565;SDS011;5331;48.148;16.326;2023-02-28T12:10:24;16.57;;;10.20;;
10565;SDS011;5331;48.148;16.326;2023-02-28T12:12:57;13.93;;;10.30;;
10565;SDS011;5331;48.148;16.326;2023-02-28T12:15:39;12.20;;;9.30;;
10565;SDS011;5331;48.148;16.326;2023-02-28T12:18:18;14.90;;;10.13;;
10565;SDS011;5331;48.148;16.326;2023-02-28T12:20:53;15.17;;;10.10;;
10565;SDS011;5331;48.148;16.326;2023-02-28T12:23:30;16.20;;;10.47;;
10565;SDS011;5331;48.148;16.326;2023-02-28T12:26:11;14.07;;;10.13;;
10565;SDS011;5331;48.148;16.326;2023-02-28T12:28:48;13.73;;;9.80;;
10565;SDS011;5331;48.148;16.326;2023-02-28T12:31:21;13.63;;;9.57;;
10565;SDS011;5331;48.148;16.326;2023-02-28T12:33:51;13.43;;;9.63;;
10565;SDS011;5331;48.148;16.326;2023-02-28T12:36:21;14.47;;;10.33;;
10565;SDS011;5331;48.148;16.326;2023-02-28T12:38:52;16.13;;;9.53;;
10565;SDS011;5331;48.148;16.326;2023-02-28T12:41:24;12.70;;;9.10;;
10565;SDS011;5331;48.148;16.326;2023-02-28T12:44:08;11.53;;;8.63;;
10565;SDS011;5331;48.148;16.326;2023-02-28T12:46:41;12.03;;;8.80;;
10565;SDS011;5331;48.148;16.326;2023-02-28T12:49:10;12.33;;;8.87;;
10565;SDS011;5331;48.148;16.326;2023-02-28T12:51:43;10.70;;;8.10;;
10565;SDS011;5331;48.148;16.326;2023-02-28T12:54:16;9.90;;;8.03;;
10565;SDS011;5331;48.148;16.326;2023-02-28T12:56:53;9.80;;;7.43;;
10565;SDS011;5331;48.148;16.326;2023-02-28T12:59:25;9.90;;;6.93;;
10565;SDS011;5331;48.148;16.326;2023-02-28T13:02:08;8.83;;;6.70;;
10565;SDS011;5331;48.148;16.326;2023-02-28T13:05:08;8.60;;;6.70;;
10565;SDS011;5331;48.148;16.326;2023-02-28T13:10:55;9.80;;;7.40;;
10565;SDS011;5331;48.148;16.326;2023-02-28T13:13:23;11.57;;;8.00;;
10565;SDS011;5331;48.148;16.326;2023-02-28T13:15:59;8.93;;;7.30;;
10565;SDS011;5331;48.148;16.326;2023-02-28T13:18:35;11.13;;;7.80;;
10565;SDS011;5331;48.148;16.326;2023-02-28T13:21:04;9.63;;;7.30;;
10565;SDS011;5331;48.148;16.326;2023-02-28T13:23:40;11.73;;;7.27;;
10565;SDS011;5331;48.148;16.326;2023-02-28T13:26:23;9.23;;;7.80;;
10565;SDS011;5331;48.148;16.326;2023-02-28T13:29:28;11.97;;;7.93;;
10565;SDS011;5331;48.148;16.326;2023-02-28T13:35:16;10.17;;;7.70;;
10565;SDS011;5331;48.148;16.326;2023-02-28T13:43:59;9.63;;;7.73;;
10565;SDS011;5331;48.148;16.326;2023-02-28T13:46:27;9.77;;;7.53;;
10565;SDS011;5331;48.148;16.326;2023-02-28T13:48:54;10.43;;;7.67;;
10565;SDS011;5331;48.148;16.326;2023-02-28T13:54:17;10.50;;;8.00;;
10565;SDS011;5331;48.148;16.326;2023-02-28T13:59:55;8.53;;;6.87;;
10565;SDS011;5331;48.148;16.326;2023-02-28T14:02:37;9.73;;;7.57;;
10565;SDS011;5331;48.148;16.326;2023-02-28T14:05:17;11.50;;;7.43;;
10565;SDS011;5331;48.148;16.326;2023-02-28T14:07:52;8.90;;;7.17;;
10565;SDS011;5331;48.148;16.326;2023-02-28T14:10:25;12.37;;;8.00;;
10565;SDS011;5331;48.148;16.326;2023-02-28T14:13:01;10.57;;;7.23;;
10565;SDS011;5331;48.148;16.326;2023-02-28T14:15:43;9.10;;;7.23;;
10565;SDS011;5331;48.148;16.326;2023-02-28T14:18:22;10.57;;;7.67;;
10565;SDS011;5331;48.148;16.326;2023-02-28T14:20:54;10.47;;;8.33;;
10565;SDS011;5331;48.148;16.326;2023-02-28T14:26:48;11.30;;;8.00;;
10565;SDS011;5331;48.148;16.326;2023-02-28T14:29:36;12.23;;;7.83;;
10565;SDS011;5331;48.148;16.326;2023-02-28T14:32:21;9.53;;;7.30;;
10565;SDS011;5331;48.148;16.326;2023-02-28T14:34:54;8.80;;;7.10;;
10565;SDS011;5331;48.148;16.326;2023-02-28T14:37:29;10.77;;;7.43;;
10565;SDS011;5331;48.148;16.326;2023-02-28T14:40:01;9.20;;;7.23;;
10565;SDS011;5331;48.148;16.326;2023-02-28T14:42:30;9.00;;;7.77;;
10565;SDS011;5331;48.148;16.326;2023-02-28T14:44:58;10.20;;;6.93;;
10565;SDS011;5331;48.148;16.326;2023-02-28T14:47:27;10.47;;;7.73;;
10565;SDS011;5331;48.148;16.326;2023-02-28T14:49:56;10.50;;;7.57;;
10565;SDS011;5331;48.148;16.326;2023-02-28T14:52:24;10.50;;;8.03;;
10565;SDS011;5331;48.148;16.326;2023-02-28T14:54:54;12.57;;;9.80;;
10565;SDS011;5331;48.148;16.326;2023-02-28T14:57:25;10.80;;;8.20;;
10565;SDS011;5331;48.148;16.326;2023-02-28T14:59:56;11.47;;;8.03;;
10565;SDS011;5331;48.148;16.326;2023-02-28T15:02:26;10.50;;;7.43;;
10565;SDS011;5331;48.148;16.326;2023-02-28T15:04:56;10.47;;;8.03;;
10565;SDS011;5331;48.148;16.326;2023-02-28T15:07:25;10.60;;;7.80;;
10565;SDS011;5331;48.148;16.326;2023-02-28T15:10:09;10.67;;;7.63;;
10565;SDS011;5331;48.148;16.326;2023-02-28T15:12:40;9.73;;;7.73;;
10565;SDS011;5331;48.148;16.326;2023-02-28T15:15:13;9.97;;;7.43;;
10565;SDS011;5331;48.148;16.326;2023-02-28T15:17:42;11.50;;;8.20;;
10565;SDS011;5331;48.148;16.326;2023-02-28T15:20:12;11.47;;;8.40;;
10565;SDS011;5331;48.148;16.326;2023-02-28T15:22:41;11.20;;;8.50;;
10565;SDS011;5331;48.148;16.326;2023-02-28T15:25:09;10.63;;;7.90;;
10565;SDS011;5331;48.148;16.326;2023-02-28T15:27:41;10.47;;;8.47;;
10565;SDS011;5331;48.148;16.326;2023-02-28T15:30:14;11.33;;;8.30;;
10565;SDS011;5331;48.148;16.326;2023-02-28T15:32:43;10.90;;;8.00;;